Etusivu
METAR-TAF:

METAR-TAF

Lentoasemat :

Kake, Alaska, Yhdysvallat

Leveyspiiri: 56-57N, Pituuspiiri: 133-54W, korkeus merenpinnasta: 52 m

Tämänhetkinen sää

Tämä raportti tehtiin 1 tunti ja 13 minuuttia sitten, kello 21.56 UTC
Tuuli 5 kn idästä
Lämpötila 9°C
Kosteus 49%
Ilmanpaine 1019 hPa
Näkyvyys: 16.1 km
selkeää

METAR: PAFE 122156Z AUTO 10005KT 10SM CLR 09/M01 A3010 RMK AO2 SLP206 T00941011

Aika: 14:09 (23:09 UTC)


TAF: puuttuu

Säähavainnot ja -ennusteet yli 4000 lentoasemalta (METAR- ja TAF-raportit).

Käytössä olevat sääasemat on merkitty karttaan keltaisilla ja punaisilla pisteillä.

Aseta hiiri pisteen päälle nähdäksesi sääaseman nimen.

Klikkaa sitten nähdäksesi säähavainnot ja -ennusteet.

Kartan vaihtaminen: klikkaa mustalla rastilla varustettuja vihreitä pisteitä, niin voit zoomata sisään; viivalla varustettua vihreää pistettä, niin voit zoomata ulos tai vihreitä nuolia, niin pääset viereisille kartoille.


METAR-TAF: